createdAt,value
2016-08-17T00:00:46.530Z,0
2016-08-17T00:01:47.232Z,0
2016-08-17T00:02:45.103Z,0
2016-08-17T00:03:46.510Z,0
2016-08-17T00:04:45.087Z,0
2016-08-17T00:05:45.796Z,0
2016-08-17T00:06:45.049Z,0
2016-08-17T00:07:45.752Z,0
2016-08-17T00:08:45.035Z,0
2016-08-17T00:09:45.731Z,0
2016-08-17T00:10:45.016Z,0
2016-08-17T00:11:45.717Z,0
2016-08-17T00:12:45.710Z,0
2016-08-17T00:13:45.692Z,0
2016-08-17T00:14:44.973Z,0
2016-08-17T00:15:44.965Z,0
2016-08-17T00:16:46.377Z,0
2016-08-17T00:17:45.653Z,0
2016-08-17T00:18:46.366Z,0
2016-08-17T00:19:45.629Z,0
2016-08-17T00:20:44.930Z,0
2016-08-17T00:21:46.314Z,0
2016-08-17T00:22:47.010Z,0
2016-08-17T00:23:46.291Z,0
2016-08-17T00:24:47.003Z,0
2016-08-17T00:25:45.581Z,0
2016-08-17T00:26:44.866Z,0
2016-08-17T00:27:46.968Z,0
2016-08-17T00:28:45.549Z,0
2016-08-17T00:29:46.248Z,0
2016-08-17T00:30:46.243Z,0
2016-08-17T00:31:45.509Z,0
2016-08-17T00:32:46.219Z,0
2016-08-17T00:33:45.506Z,0
2016-08-17T00:34:46.202Z,0
2016-08-17T00:35:46.185Z,0
2016-08-17T00:36:46.882Z,0
2016-08-17T00:37:45.455Z,0
2016-08-17T00:38:44.728Z,0
2016-08-17T00:39:46.155Z,0
2016-08-17T00:40:46.138Z,0
2016-08-17T00:41:46.134Z,0
2016-08-17T00:42:46.116Z,0
2016-08-17T00:43:45.410Z,0
2016-08-17T00:44:46.087Z,0
2016-08-17T00:45:46.076Z,0
2016-08-17T00:46:44.645Z,0
2016-08-17T00:47:44.633Z,0
2016-08-17T00:48:46.038Z,0
2016-08-17T00:49:44.626Z,0
2016-08-17T00:50:46.022Z,0
2016-08-17T00:51:44.594Z,0
2016-08-17T00:52:45.295Z,0
2016-08-17T00:53:45.300Z,0
2016-08-17T00:54:45.268Z,0
2016-08-17T00:55:45.256Z,0
2016-08-17T00:56:44.535Z,0
2016-08-17T00:57:45.957Z,0
2016-08-17T00:58:44.533Z,0
2016-08-17T00:59:46.139Z,0
2016-08-17T01:00:45.200Z,0
2016-08-17T01:01:45.196Z,0
2016-08-17T01:02:44.482Z,0
2016-08-17T01:03:45.192Z,0
2016-08-17T01:04:44.447Z,0
2016-08-17T01:05:45.866Z,0
2016-08-17T01:06:45.159Z,0
2016-08-17T01:07:45.840Z,0
2016-08-17T01:08:45.824Z,0
2016-08-17T01:09:45.131Z,0
2016-08-17T01:10:45.813Z,0
2016-08-17T01:11:45.795Z,0
2016-08-17T01:12:45.079Z,0
2016-08-17T01:13:45.075Z,0
2016-08-17T01:14:45.789Z,0
2016-08-17T01:15:44.556Z,0
2016-08-17T01:16:46.447Z,0
2016-08-17T01:17:45.747Z,0
2016-08-17T01:18:45.040Z,0
2016-08-17T01:19:45.729Z,0
2016-08-17T01:20:45.711Z,0
2016-08-17T01:21:45.706Z,0
2016-08-17T01:22:45.685Z,0
2016-08-17T01:23:44.263Z,0
2016-08-17T01:24:47.094Z,0
2016-08-17T01:25:45.650Z,0
2016-08-17T01:26:46.381Z,0
2016-08-17T01:27:44.225Z,0
2016-08-17T01:28:44.203Z,0
2016-08-17T01:29:45.613Z,0
2016-08-17T01:30:44.895Z,0
2016-08-17T01:31:45.603Z,0
2016-08-17T01:32:44.873Z,0
2016-08-17T01:33:45.563Z,0
2016-08-17T01:34:46.997Z,0
2016-08-17T01:35:44.848Z,0
2016-08-17T01:36:44.826Z,0
2016-08-17T01:37:44.829Z,0
2016-08-17T01:38:44.805Z,0
2016-08-17T01:39:44.805Z,0
2016-08-17T01:40:44.799Z,0
2016-08-17T01:41:44.795Z,0
2016-08-17T01:42:44.757Z,0
2016-08-17T01:43:45.471Z,0
2016-08-17T01:44:44.047Z,0
2016-08-17T01:45:45.444Z,0
2016-08-17T01:46:45.430Z,0
2016-08-17T01:47:46.131Z,0
2016-08-17T01:48:45.412Z,0
2016-08-17T01:49:45.402Z,0
2016-08-17T01:50:45.392Z,0
2016-08-17T01:51:43.968Z,0
2016-08-17T01:52:46.800Z,0
2016-08-17T01:53:45.362Z,0
2016-08-17T01:54:45.353Z,0
2016-08-17T01:55:44.628Z,0
2016-08-17T01:56:45.339Z,0
2016-08-17T01:57:44.624Z,0
2016-08-17T01:58:45.298Z,0
2016-08-17T01:59:46.004Z,0
2016-08-17T02:00:43.899Z,0
2016-08-17T02:01:44.575Z,0
2016-08-17T02:02:44.566Z,0
2016-08-17T02:03:44.545Z,0
2016-08-17T02:04:43.837Z,0
2016-08-17T02:05:45.230Z,0
2016-08-17T02:06:44.514Z,0
2016-08-17T02:07:43.804Z,0
2016-08-17T02:08:44.506Z,0
2016-08-17T02:09:43.778Z,0
2016-08-17T02:10:45.885Z,0
2016-08-17T02:11:45.185Z,0
2016-08-17T02:12:45.880Z,0
2016-08-17T02:13:43.743Z,0
2016-08-17T02:14:44.439Z,0
2016-08-17T02:15:45.135Z,0
2016-08-17T02:16:43.723Z,0
2016-08-17T02:17:45.120Z,0
2016-08-17T02:18:45.802Z,0
2016-08-17T02:19:44.386Z,0
2016-08-17T02:20:44.370Z,0
2016-08-17T02:21:44.355Z,0
2016-08-17T02:22:44.359Z,0
2016-08-17T02:23:44.338Z,0
2016-08-17T02:24:45.746Z,0
2016-08-17T02:25:43.622Z,0
2016-08-17T02:26:43.597Z,0
2016-08-17T02:27:43.586Z,0
2016-08-17T02:28:44.994Z,0
2016-08-17T02:29:44.277Z,0
2016-08-17T02:30:45.676Z,0
2016-08-17T02:31:44.251Z,0
2016-08-17T02:32:44.247Z,0
2016-08-17T02:33:43.526Z,0
2016-08-17T02:34:44.224Z,0
2016-08-17T02:35:44.914Z,0
2016-08-17T02:36:44.203Z,0
2016-08-17T02:37:44.213Z,0
2016-08-17T02:38:44.894Z,0
2016-08-17T02:39:46.288Z,0
2016-08-17T02:40:43.859Z,0
2016-08-17T02:41:44.168Z,0
2016-08-17T02:42:43.440Z,0
2016-08-17T02:43:44.148Z,0
2016-08-17T02:44:44.839Z,0
2016-08-17T02:45:44.112Z,0
2016-08-17T02:46:43.394Z,0
2016-08-17T02:47:44.085Z,0
2016-08-17T02:48:44.781Z,0
2016-08-17T02:49:44.782Z,0
2016-08-17T02:50:43.348Z,0
2016-08-17T02:51:44.756Z,0
2016-08-17T02:52:44.760Z,0
2016-08-17T02:53:43.320Z,0
2016-08-17T02:54:45.432Z,0
2016-08-17T02:55:44.741Z,0
2016-08-17T02:56:43.987Z,0
2016-08-17T02:57:45.410Z,0
2016-08-17T02:58:43.971Z,0
2016-08-17T02:59:44.006Z,0
2016-08-17T03:00:43.950Z,0
2016-08-17T03:01:43.946Z,0
2016-08-17T03:02:44.651Z,0
2016-08-17T03:03:44.640Z,0
2016-08-17T03:04:43.915Z,0
2016-08-17T03:05:45.347Z,0
2016-08-17T03:06:43.235Z,0
2016-08-17T03:07:44.584Z,0
2016-08-17T03:08:43.884Z,0
2016-08-17T03:09:44.575Z,0
2016-08-17T03:10:43.154Z,0
2016-08-17T03:11:45.971Z,0
2016-08-17T03:12:44.544Z,0
2016-08-17T03:13:43.816Z,0
2016-08-17T03:14:43.099Z,0
2016-08-17T03:15:44.493Z,0
2016-08-17T03:16:44.518Z,0
2016-08-17T03:17:44.498Z,0
2016-08-17T03:18:43.060Z,0
2016-08-17T03:19:44.717Z,0
2016-08-17T03:20:44.434Z,0
2016-08-17T03:21:44.439Z,0
2016-08-17T03:22:43.727Z,0
2016-08-17T03:23:42.986Z,0
2016-08-17T03:24:43.694Z,0
2016-08-17T03:25:45.096Z,0
2016-08-17T03:26:42.963Z,0
2016-08-17T03:27:42.949Z,0
2016-08-17T03:28:42.939Z,0
2016-08-17T03:29:45.076Z,0
2016-08-17T03:30:43.618Z,0
2016-08-17T03:31:44.532Z,0
2016-08-17T03:32:42.898Z,0
2016-08-17T03:33:42.884Z,0
2016-08-17T03:34:42.874Z,0
2016-08-17T03:35:44.278Z,0
2016-08-17T03:36:44.275Z,0
2016-08-17T03:37:44.971Z,0
2016-08-17T03:38:42.836Z,0
2016-08-17T03:39:43.526Z,0
2016-08-17T03:40:42.831Z,0
2016-08-17T03:41:44.917Z,0
2016-08-17T03:42:44.210Z,0
2016-08-17T03:43:43.481Z,0
2016-08-17T03:44:44.181Z,0
2016-08-17T03:45:43.458Z,0
2016-08-17T03:46:42.748Z,0
2016-08-17T03:47:42.731Z,0
2016-08-17T03:48:44.131Z,0
2016-08-17T03:49:43.411Z,0
2016-08-17T03:50:44.105Z,0
2016-08-17T03:51:42.675Z,0
2016-08-17T03:52:44.090Z,0
2016-08-17T03:53:43.365Z,0
2016-08-17T03:54:44.068Z,0
2016-08-17T03:55:43.344Z,0
2016-08-17T03:56:44.035Z,0
2016-08-17T03:57:44.739Z,0
2016-08-17T03:58:44.747Z,0
2016-08-17T03:59:43.299Z,0
2016-08-17T04:00:43.993Z,0
2016-08-17T04:01:43.277Z,0
2016-08-17T04:02:43.974Z,0
2016-08-17T04:03:43.960Z,0
2016-08-17T04:04:43.239Z,0
2016-08-17T04:05:43.237Z,0
2016-08-17T04:06:43.921Z,0
2016-08-17T04:07:42.504Z,0
2016-08-17T04:08:43.908Z,0
2016-08-17T04:09:43.189Z,0
2016-08-17T04:10:42.478Z,0
2016-08-17T04:11:44.580Z,0
2016-08-17T04:12:43.355Z,0
2016-08-17T04:13:43.861Z,0
2016-08-17T04:14:43.848Z,0
2016-08-17T04:15:43.836Z,0
2016-08-17T04:16:43.115Z,0
2016-08-17T04:17:43.095Z,0
2016-08-17T04:18:43.813Z,0
2016-08-17T04:19:42.379Z,5
2016-08-17T04:20:42.365Z,5
2016-08-17T04:21:44.468Z,5
2016-08-17T04:22:43.032Z,5
2016-08-17T04:23:42.321Z,5
2016-08-17T04:24:44.431Z,5
2016-08-17T04:25:42.298Z,5
2016-08-17T04:26:44.411Z,5
2016-08-17T04:27:43.682Z,5
2016-08-17T04:28:42.271Z,5
2016-08-17T04:29:42.249Z,10
2016-08-17T04:30:42.946Z,10
2016-08-17T04:31:42.937Z,10
2016-08-17T04:32:43.633Z,10
2016-08-17T04:33:43.615Z,10
2016-08-17T04:34:44.332Z,10
2016-08-17T04:35:44.313Z,10
2016-08-17T04:36:43.583Z,10
2016-08-17T04:37:42.874Z,10
2016-08-17T04:38:42.850Z,15
2016-08-17T04:39:42.864Z,15
2016-08-17T04:40:42.126Z,15
2016-08-17T04:41:43.546Z,15
2016-08-17T04:42:43.522Z,15
2016-08-17T04:43:42.797Z,15
2016-08-17T04:44:42.790Z,15
2016-08-17T04:45:42.778Z,15
2016-08-17T04:46:42.766Z,20
2016-08-17T04:47:42.761Z,20
2016-08-17T04:48:42.738Z,20
2016-08-17T04:49:44.148Z,20
2016-08-17T04:50:42.755Z,20
2016-08-17T04:51:42.787Z,20
2016-08-17T04:52:41.992Z,20
2016-08-17T04:53:42.677Z,20
2016-08-17T04:54:43.391Z,25
2016-08-17T04:55:43.401Z,25
2016-08-17T04:56:41.942Z,25
2016-08-17T04:57:43.341Z,25
2016-08-17T04:58:44.043Z,25
2016-08-17T04:59:44.030Z,25
2016-08-17T05:00:43.369Z,25
2016-08-17T05:01:44.002Z,25
2016-08-17T05:02:42.587Z,30
2016-08-17T05:03:42.569Z,30
2016-08-17T05:04:44.036Z,30
2016-08-17T05:05:43.965Z,30
2016-08-17T05:06:41.826Z,30
2016-08-17T05:07:44.663Z,30
2016-08-17T05:08:43.927Z,30
2016-08-17T05:09:43.204Z,30
2016-08-17T05:10:42.489Z,30
2016-08-17T05:11:42.478Z,35
2016-08-17T05:12:43.176Z,35
2016-08-17T05:13:41.757Z,35
2016-08-17T05:14:43.156Z,35
2016-08-17T05:15:43.879Z,35
2016-08-17T05:16:41.719Z,35
2016-08-17T05:17:43.119Z,35
2016-08-17T05:18:43.126Z,35
2016-08-17T05:19:43.098Z,35
2016-08-17T05:20:42.375Z,35
2016-08-17T05:21:43.780Z,40
2016-08-17T05:22:41.643Z,40
2016-08-17T05:23:43.760Z,40
2016-08-17T05:24:41.622Z,40
2016-08-17T05:25:42.324Z,40
2016-08-17T05:26:43.721Z,40
2016-08-17T05:27:42.303Z,40
2016-08-17T05:28:41.577Z,40
2016-08-17T05:29:42.286Z,40
2016-08-17T05:30:43.676Z,40
2016-08-17T05:31:42.256Z,40
2016-08-17T05:32:42.245Z,45
2016-08-17T05:33:42.231Z,45
2016-08-17T05:34:42.937Z,45
2016-08-17T05:35:42.920Z,45
2016-08-17T05:36:42.210Z,45
2016-08-17T05:37:42.191Z,45
2016-08-17T05:38:42.168Z,45
2016-08-17T05:39:41.457Z,45
2016-08-17T05:40:42.863Z,45
2016-08-17T05:41:42.142Z,45
2016-08-17T05:42:42.840Z,45
2016-08-17T05:43:42.833Z,45
2016-08-17T05:44:43.527Z,50
2016-08-17T05:45:42.823Z,50
2016-08-17T05:46:43.500Z,50
2016-08-17T05:47:42.778Z,50
2016-08-17T05:48:44.187Z,50
2016-08-17T05:49:42.053Z,50
2016-08-17T05:50:42.045Z,50
2016-08-17T05:51:42.740Z,50
2016-08-17T05:52:42.728Z,50
2016-08-17T05:53:42.731Z,50
2016-08-17T05:54:43.414Z,50
2016-08-17T05:55:42.691Z,50
2016-08-17T05:56:41.971Z,50
2016-08-17T05:57:44.094Z,50
2016-08-17T05:58:41.955Z,55
2016-08-17T05:59:41.945Z,55
2016-08-17T06:00:42.699Z,55
2016-08-17T06:01:41.219Z,55
2016-08-17T06:02:41.911Z,55
2016-08-17T06:03:41.899Z,55
2016-08-17T06:04:41.186Z,55
2016-08-17T06:05:41.887Z,55
2016-08-17T06:06:42.579Z,55
2016-08-17T06:07:42.564Z,55
2016-08-17T06:08:41.143Z,55
2016-08-17T06:09:43.257Z,55
2016-08-17T06:10:42.533Z,55
2016-08-17T06:11:41.106Z,55
2016-08-17T06:12:43.218Z,55
2016-08-17T06:13:41.803Z,60
2016-08-17T06:14:42.503Z,60
2016-08-17T06:15:41.773Z,60
2016-08-17T06:16:41.765Z,60
2016-08-17T06:17:42.459Z,60
2016-08-17T06:18:42.456Z,60
2016-08-17T06:19:41.743Z,60
2016-08-17T06:20:41.019Z,60
2016-08-17T06:21:41.015Z,60
2016-08-17T06:22:41.707Z,60
2016-08-17T06:23:41.694Z,60
2016-08-17T06:24:41.694Z,60
2016-08-17T06:25:42.377Z,60
2016-08-17T06:26:42.376Z,60
2016-08-17T06:27:40.952Z,60
2016-08-17T06:28:40.935Z,60
2016-08-17T06:29:41.645Z,60
2016-08-17T06:30:42.329Z,65
2016-08-17T06:31:42.320Z,65
2016-08-17T06:32:42.325Z,65
2016-08-17T06:33:41.604Z,65
2016-08-17T06:34:41.579Z,65
2016-08-17T06:35:41.579Z,65
2016-08-17T06:36:40.851Z,65
2016-08-17T06:37:42.261Z,65
2016-08-17T06:38:40.836Z,65
2016-08-17T06:39:40.826Z,65
2016-08-17T06:40:40.819Z,65
2016-08-17T06:41:43.630Z,65
2016-08-17T06:42:40.789Z,65
2016-08-17T06:43:42.200Z,65
2016-08-17T06:44:42.198Z,65
2016-08-17T06:45:40.769Z,65
2016-08-17T06:46:41.454Z,65
2016-08-17T06:47:42.159Z,65
2016-08-17T06:48:41.448Z,70
2016-08-17T06:49:42.137Z,70
2016-08-17T06:50:42.121Z,70
2016-08-17T06:51:40.714Z,70
2016-08-17T06:52:41.412Z,70
2016-08-17T06:53:42.120Z,70
2016-08-17T06:54:42.100Z,70
2016-08-17T06:55:41.371Z,70
2016-08-17T06:56:41.359Z,70
2016-08-17T06:57:40.641Z,70
2016-08-17T06:58:42.049Z,70
2016-08-17T06:59:42.041Z,70
2016-08-17T07:00:41.316Z,70
2016-08-17T07:01:42.019Z,70
2016-08-17T07:02:42.008Z,70
2016-08-17T07:03:42.704Z,70
2016-08-17T07:04:42.220Z,70
2016-08-17T07:05:40.562Z,70
2016-08-17T07:06:41.257Z,70
2016-08-17T07:07:41.963Z,70
2016-08-17T07:08:42.656Z,70
2016-08-17T07:09:41.234Z,70
2016-08-17T07:10:40.727Z,70
2016-08-17T07:11:41.923Z,70
2016-08-17T07:12:41.216Z,70
2016-08-17T07:13:41.209Z,70
2016-08-17T07:14:41.903Z,70
2016-08-17T07:15:41.887Z,70
2016-08-17T07:16:41.168Z,70
2016-08-17T07:17:41.873Z,70
2016-08-17T07:18:41.856Z,70
2016-08-17T07:19:42.043Z,70
2016-08-17T07:20:41.134Z,70
2016-08-17T07:21:41.122Z,70
2016-08-17T07:22:40.411Z,70
2016-08-17T07:23:42.520Z,75
2016-08-17T07:24:40.387Z,75
2016-08-17T07:25:41.789Z,75
2016-08-17T07:26:41.076Z,75
2016-08-17T07:27:42.475Z,75
2016-08-17T07:28:41.058Z,75
2016-08-17T07:29:41.760Z,75
2016-08-17T07:30:41.031Z,75
2016-08-17T07:31:41.733Z,75
2016-08-17T07:32:41.032Z,75
2016-08-17T07:33:41.013Z,75
2016-08-17T07:34:40.297Z,75
2016-08-17T07:35:43.135Z,75
2016-08-17T07:36:40.290Z,75
2016-08-17T07:37:40.985Z,75
2016-08-17T07:38:41.691Z,75
2016-08-17T07:39:40.966Z,75
2016-08-17T07:40:41.656Z,75
2016-08-17T07:41:40.236Z,75
2016-08-17T07:42:41.641Z,75
2016-08-17T07:43:42.339Z,75
2016-08-17T07:44:41.619Z,75
2016-08-17T07:45:41.607Z,75
2016-08-17T07:46:42.312Z,80
2016-08-17T07:47:40.180Z,80
2016-08-17T07:48:41.604Z,80
2016-08-17T07:49:42.292Z,80
2016-08-17T07:50:40.859Z,80
2016-08-17T07:51:41.554Z,80
2016-08-17T07:52:41.555Z,80
2016-08-17T07:53:41.539Z,80
2016-08-17T07:54:41.533Z,80
2016-08-17T07:55:40.817Z,80
2016-08-17T07:56:41.520Z,80
2016-08-17T07:57:41.521Z,85
2016-08-17T07:58:41.496Z,85
2016-08-17T07:59:40.784Z,85
2016-08-17T08:00:41.493Z,85
2016-08-17T08:01:42.176Z,85
2016-08-17T08:02:41.482Z,85
2016-08-17T08:03:41.457Z,85
2016-08-17T08:04:41.450Z,90
2016-08-17T08:05:40.732Z,90
2016-08-17T08:06:42.144Z,90
2016-08-17T08:07:40.709Z,90
2016-08-17T08:08:40.714Z,90
2016-08-17T08:09:40.702Z,90
2016-08-17T08:10:40.686Z,90
2016-08-17T08:11:39.966Z,90
2016-08-17T08:12:40.671Z,95
2016-08-17T08:13:40.663Z,95
2016-08-17T08:14:40.657Z,100
2016-08-17T08:15:40.639Z,115
2016-08-17T08:16:40.636Z,755
2016-08-17T08:17:41.333Z,1375
2016-08-17T08:18:42.032Z,1425
2016-08-17T08:19:42.030Z,1485
2016-08-17T08:20:40.609Z,1525
2016-08-17T08:21:39.887Z,1515
2016-08-17T08:22:40.593Z,1505
2016-08-17T08:23:42.014Z,1495
2016-08-17T08:24:40.578Z,1475
2016-08-17T08:25:39.866Z,1425
2016-08-17T08:26:41.286Z,1395
2016-08-17T08:27:41.988Z,1370
2016-08-17T08:28:41.278Z,1315
2016-08-17T08:29:40.564Z,1325
2016-08-17T08:30:39.849Z,1420
2016-08-17T08:31:39.854Z,1540
2016-08-17T08:32:40.549Z,1485
2016-08-17T08:33:41.254Z,1440
2016-08-17T08:34:41.242Z,1355
2016-08-17T08:35:41.952Z,965
2016-08-17T08:36:40.530Z,1020
2016-08-17T08:37:40.525Z,965
2016-08-17T08:38:41.951Z,205
2016-08-17T08:39:39.809Z,225
2016-08-17T08:40:41.226Z,235
2016-08-17T08:41:40.521Z,695
2016-08-17T08:42:40.513Z,530
2016-08-17T08:43:39.798Z,215
2016-08-17T08:44:40.515Z,255
2016-08-17T08:45:40.491Z,440
2016-08-17T08:46:41.208Z,740
2016-08-17T08:47:41.205Z,810
2016-08-17T08:48:41.212Z,335
2016-08-17T08:49:39.783Z,170
2016-08-17T08:50:40.486Z,285
2016-08-17T08:51:41.186Z,165
2016-08-17T08:52:40.491Z,155
2016-08-17T08:53:41.175Z,150
2016-08-17T08:54:40.482Z,150
2016-08-17T08:55:39.756Z,165
2016-08-17T08:56:41.173Z,140
2016-08-17T08:57:41.873Z,125
2016-08-17T08:58:41.860Z,120
2016-08-17T08:59:41.162Z,120
2016-08-17T09:00:40.435Z,120
2016-08-17T09:01:40.422Z,125
2016-08-17T09:02:41.150Z,125
2016-08-17T09:03:40.425Z,120
2016-08-17T09:04:40.418Z,125
2016-08-17T09:05:41.128Z,120
2016-08-17T09:06:41.832Z,125
2016-08-17T09:07:41.125Z,125
2016-08-17T09:08:41.103Z,120
2016-08-17T09:09:40.391Z,110
2016-08-17T09:10:41.099Z,110
2016-08-17T09:11:41.093Z,115
2016-08-17T09:12:41.086Z,110
2016-08-17T09:13:41.782Z,110
2016-08-17T09:14:40.369Z,115
2016-08-17T09:15:41.070Z,120
2016-08-17T09:16:40.359Z,125
2016-08-17T09:17:41.061Z,115
2016-08-17T09:18:39.730Z,130
2016-08-17T09:19:41.061Z,110
2016-08-17T09:20:41.044Z,120
2016-08-17T09:21:40.328Z,115
2016-08-17T09:22:41.027Z,115
2016-08-17T09:23:41.026Z,110
2016-08-17T09:24:39.610Z,125
2016-08-17T09:25:39.604Z,140
2016-08-17T09:26:40.305Z,125
2016-08-17T09:27:40.289Z,145
2016-08-17T09:28:40.293Z,110
2016-08-17T09:29:41.002Z,115
2016-08-17T09:30:40.278Z,170
2016-08-17T09:31:40.272Z,125
2016-08-17T09:32:40.973Z,170
2016-08-17T09:33:39.556Z,120
2016-08-17T09:34:40.962Z,120
2016-08-17T09:35:40.959Z,120
2016-08-17T09:36:39.538Z,115
2016-08-17T09:37:40.954Z,115
2016-08-17T09:38:40.233Z,115
2016-08-17T09:39:40.225Z,115
2016-08-17T09:40:40.948Z,120
2016-08-17T09:41:41.128Z,125
2016-08-17T09:42:40.212Z,115
2016-08-17T09:43:40.910Z,115
2016-08-17T09:44:40.204Z,115
2016-08-17T09:45:40.909Z,115
2016-08-17T09:46:40.186Z,115
2016-08-17T09:47:41.590Z,115
2016-08-17T09:48:40.184Z,115
2016-08-17T09:49:40.166Z,115
2016-08-17T09:50:39.460Z,120
2016-08-17T09:51:40.159Z,120
2016-08-17T09:52:40.150Z,120
2016-08-17T09:53:40.851Z,120
2016-08-17T09:54:40.140Z,120
2016-08-17T09:55:40.833Z,125
2016-08-17T09:56:39.419Z,120
2016-08-17T09:57:39.427Z,120
2016-08-17T09:58:40.109Z,120
2016-08-17T09:59:40.107Z,120
2016-08-17T10:00:40.809Z,125
2016-08-17T10:01:40.098Z,130
2016-08-17T10:02:39.378Z,190
2016-08-17T10:03:40.073Z,125
2016-08-17T10:04:40.787Z,125
2016-08-17T10:05:41.499Z,130
2016-08-17T10:06:41.689Z,130
2016-08-17T10:07:40.765Z,150
2016-08-17T10:08:40.756Z,125
2016-08-17T10:09:41.471Z,130
2016-08-17T10:10:41.454Z,130
2016-08-17T10:11:41.456Z,210
2016-08-17T10:12:41.490Z,185
2016-08-17T10:13:41.457Z,140
2016-08-17T10:14:40.015Z,170
2016-08-17T10:15:41.452Z,180
2016-08-17T10:16:40.723Z,165
2016-08-17T10:17:40.714Z,175
2016-08-17T10:18:39.993Z,165
2016-08-17T10:19:40.701Z,200
2016-08-17T10:20:40.714Z,225
2016-08-17T10:21:41.420Z,190
2016-08-17T10:22:41.620Z,480
2016-08-17T10:23:39.976Z,530
2016-08-17T10:24:40.674Z,405
2016-08-17T10:25:40.670Z,175
2016-08-17T10:26:41.396Z,235
2016-08-17T10:27:39.942Z,190
2016-08-17T10:28:41.419Z,175
2016-08-17T10:29:41.357Z,240
2016-08-17T10:30:40.640Z,155
2016-08-17T10:31:40.629Z,270
2016-08-17T10:32:39.215Z,565
2016-08-17T10:33:39.904Z,645
2016-08-17T10:34:39.907Z,1315
2016-08-17T10:35:39.906Z,1800
2016-08-17T10:36:40.604Z,2015
2016-08-17T10:37:41.308Z,1785
2016-08-17T10:38:40.077Z,1905
2016-08-17T10:39:41.295Z,2140
2016-08-17T10:40:40.582Z,2155
2016-08-17T10:41:39.881Z,2170
2016-08-17T10:42:40.568Z,2195
2016-08-17T10:43:39.150Z,2200
2016-08-17T10:44:40.977Z,2145
2016-08-17T10:45:41.984Z,2120
2016-08-17T10:46:39.854Z,2145
2016-08-17T10:47:41.281Z,2210
2016-08-17T10:48:40.547Z,2275
2016-08-17T10:49:39.863Z,2245
2016-08-17T10:50:40.566Z,2165
2016-08-17T10:51:40.562Z,2195
2016-08-17T10:52:41.366Z,2260
2016-08-17T10:53:41.285Z,2265
2016-08-17T10:54:40.557Z,2190
2016-08-17T10:55:40.561Z,2150
2016-08-17T10:56:39.860Z,2150
2016-08-17T10:57:41.983Z,2170
2016-08-17T10:58:40.573Z,2170
2016-08-17T10:59:41.272Z,2145
2016-08-17T11:00:40.573Z,2110
2016-08-17T11:01:39.865Z,2125
2016-08-17T11:02:40.577Z,2170
2016-08-17T11:03:40.577Z,2205
2016-08-17T11:04:39.155Z,2220
2016-08-17T11:05:40.582Z,2215
2016-08-17T11:06:39.160Z,2195
2016-08-17T11:07:41.496Z,2190
2016-08-17T11:08:40.591Z,2200
2016-08-17T11:09:40.588Z,2220
2016-08-17T11:10:40.607Z,2200
2016-08-17T11:11:39.896Z,2180
2016-08-17T11:12:39.894Z,2165
2016-08-17T11:13:39.909Z,2195
2016-08-17T11:14:39.906Z,2160
2016-08-17T11:15:40.604Z,2065
2016-08-17T11:16:40.610Z,2090
2016-08-17T11:17:41.330Z,2105
2016-08-17T11:18:40.715Z,2145
2016-08-17T11:19:40.639Z,2175
2016-08-17T11:20:40.123Z,2180
2016-08-17T11:21:40.630Z,2185
2016-08-17T11:22:39.938Z,2215
2016-08-17T11:23:40.640Z,2240
2016-08-17T11:24:42.070Z,2240
2016-08-17T11:25:39.948Z,2225
2016-08-17T11:26:41.389Z,2190
2016-08-17T11:27:40.672Z,2185
2016-08-17T11:28:39.956Z,2205
2016-08-17T11:29:39.981Z,2255
2016-08-17T11:30:39.975Z,2275
2016-08-17T11:31:40.696Z,2250
2016-08-17T11:32:40.696Z,2235
2016-08-17T11:33:40.696Z,2220
2016-08-17T11:34:41.412Z,2245
2016-08-17T11:35:40.756Z,2215
2016-08-17T11:36:42.149Z,2190
2016-08-17T11:37:40.725Z,2175
2016-08-17T11:38:40.736Z,2170
2016-08-17T11:39:40.029Z,2180
2016-08-17T11:40:40.744Z,2190
2016-08-17T11:41:40.762Z,2180
2016-08-17T11:42:41.462Z,2185
2016-08-17T11:43:40.070Z,2285
2016-08-17T11:44:41.463Z,2445
2016-08-17T11:45:41.484Z,2505
2016-08-17T11:46:40.979Z,2480
2016-08-17T11:47:40.787Z,2450
2016-08-17T11:48:40.812Z,2425
2016-08-17T11:49:40.803Z,2420
2016-08-17T11:50:41.520Z,2450
2016-08-17T11:51:40.819Z,2455
2016-08-17T11:52:40.309Z,2465
2016-08-17T11:53:40.110Z,2440
2016-08-17T11:54:39.413Z,2435
2016-08-17T11:55:40.134Z,2450
2016-08-17T11:56:40.836Z,2445
2016-08-17T11:57:41.560Z,2420
2016-08-17T11:58:40.863Z,2355
2016-08-17T11:59:41.578Z,2310
2016-08-17T12:00:39.462Z,2270
2016-08-17T12:01:40.168Z,2290
2016-08-17T12:02:40.901Z,2310
2016-08-17T12:03:40.882Z,2315
2016-08-17T12:04:41.604Z,2310
2016-08-17T12:05:41.597Z,2300
2016-08-17T12:06:42.318Z,2290
2016-08-17T12:07:40.201Z,2265
2016-08-17T12:08:41.621Z,2270
2016-08-17T12:09:41.643Z,2275
2016-08-17T12:10:41.632Z,2280
2016-08-17T12:11:40.224Z,2320
2016-08-17T12:12:40.236Z,2350
2016-08-17T12:13:40.943Z,2345
2016-08-17T12:14:39.541Z,2285
2016-08-17T12:15:40.260Z,2195
2016-08-17T12:16:41.692Z,2215
2016-08-17T12:17:40.974Z,2185
2016-08-17T12:18:41.696Z,2245
2016-08-17T12:19:41.194Z,2225
2016-08-17T12:20:41.714Z,2160
2016-08-17T12:21:40.296Z,2110
2016-08-17T12:22:41.013Z,2085
2016-08-17T12:23:40.306Z,2060
2016-08-17T12:24:39.608Z,2070
2016-08-17T12:25:41.042Z,2070
2016-08-17T12:26:41.748Z,2055
2016-08-17T12:27:41.059Z,2080
2016-08-17T12:28:41.052Z,2075
2016-08-17T12:29:40.348Z,2085
2016-08-17T12:30:40.362Z,2085
2016-08-17T12:31:40.372Z,2105
2016-08-17T12:32:40.371Z,2090
2016-08-17T12:33:40.367Z,2095
2016-08-17T12:34:39.668Z,2110
2016-08-17T12:35:41.807Z,2105
2016-08-17T12:36:40.402Z,2070
2016-08-17T12:37:41.816Z,2050
2016-08-17T12:38:41.110Z,2045
2016-08-17T12:39:41.133Z,2055
2016-08-17T12:40:41.129Z,2070
2016-08-17T12:41:39.714Z,2065
2016-08-17T12:42:40.426Z,2045
2016-08-17T12:43:41.862Z,2050
2016-08-17T12:44:41.155Z,2040
2016-08-17T12:45:41.875Z,2020
2016-08-17T12:46:41.175Z,2005
2016-08-17T12:47:40.461Z,2015
2016-08-17T12:48:42.096Z,2050
2016-08-17T12:49:40.476Z,2065
2016-08-17T12:50:41.203Z,2080
2016-08-17T12:51:41.212Z,2030
2016-08-17T12:52:41.216Z,1985
2016-08-17T12:53:40.509Z,1985
2016-08-17T12:54:40.522Z,1985
2016-08-17T12:55:40.521Z,2000
2016-08-17T12:56:39.819Z,2020
2016-08-17T12:57:41.245Z,2020
2016-08-17T12:58:39.844Z,1995
2016-08-17T12:59:40.550Z,1995
2016-08-17T13:00:40.550Z,1985
2016-08-17T13:01:41.273Z,1965
2016-08-17T13:02:41.278Z,1955
2016-08-17T13:03:40.570Z,1975
2016-08-17T13:04:41.308Z,1995
2016-08-17T13:05:42.019Z,2010
2016-08-17T13:06:42.017Z,2020
2016-08-17T13:07:40.605Z,2025
2016-08-17T13:08:41.315Z,2020
2016-08-17T13:09:39.917Z,1995
2016-08-17T13:10:41.326Z,1965
2016-08-17T13:11:41.335Z,1950
2016-08-17T13:12:42.054Z,1970
2016-08-17T13:13:39.936Z,1955
2016-08-17T13:14:40.659Z,1945
2016-08-17T13:15:41.373Z,1940
2016-08-17T13:16:39.951Z,1920
2016-08-17T13:17:39.961Z,1915
2016-08-17T13:18:40.668Z,1910
2016-08-17T13:19:40.675Z,1895
2016-08-17T13:20:39.979Z,1835
2016-08-17T13:21:42.113Z,1775
2016-08-17T13:22:41.404Z,1765
2016-08-17T13:23:40.705Z,1825
2016-08-17T13:24:41.421Z,1890
2016-08-17T13:25:41.432Z,1940
2016-08-17T13:26:41.435Z,1965
2016-08-17T13:27:41.458Z,1940
2016-08-17T13:28:41.444Z,1930
2016-08-17T13:29:42.870Z,1900
2016-08-17T13:30:40.744Z,1905
2016-08-17T13:31:41.077Z,1885
2016-08-17T13:32:42.177Z,1900
2016-08-17T13:33:41.490Z,1610
2016-08-17T13:34:40.766Z,1680
2016-08-17T13:35:40.777Z,1470
2016-08-17T13:36:40.784Z,1655
2016-08-17T13:37:42.196Z,1705
2016-08-17T13:38:40.799Z,1805
2016-08-17T13:39:40.798Z,1800
2016-08-17T13:40:40.810Z,1800
2016-08-17T13:41:41.513Z,1805
2016-08-17T13:42:41.521Z,1830
2016-08-17T13:43:40.821Z,1665
2016-08-17T13:44:40.121Z,1585
2016-08-17T13:45:41.541Z,1690
2016-08-17T13:46:42.966Z,1535
2016-08-17T13:47:40.837Z,1200
2016-08-17T13:48:40.858Z,1590
2016-08-17T13:49:41.558Z,1810
2016-08-17T13:50:42.265Z,1690
2016-08-17T13:51:40.148Z,1790
2016-08-17T13:52:42.288Z,1805
2016-08-17T13:53:40.877Z,1750
2016-08-17T13:54:42.287Z,1750
2016-08-17T13:55:40.887Z,1780
2016-08-17T13:56:42.303Z,1800
2016-08-17T13:57:42.301Z,1785
2016-08-17T13:58:42.313Z,1775
2016-08-17T13:59:40.912Z,1770
2016-08-17T14:00:41.601Z,1775
2016-08-17T14:01:41.618Z,1770
2016-08-17T14:02:40.907Z,1775
2016-08-17T14:03:41.641Z,1795
2016-08-17T14:04:40.924Z,1750